Latest Weather Observations for Moorabbin Airport

IDV60901

Issued at 11:11 pm EST Saturday 19 August 2017 (issued every 10 minutes, with the page automatically refreshed every 10 minutes)

About weather observations | Map of Melbourne area stations | Latest observations for Melbourne area | Other Formats
Station Details ID: 086077 Name: MOORABBIN AIRPORT Lat: -37.98 Lon: 145.10 Height: 12.1 m
Data from the previous 72 hours. | See also: Recent months at Moorabbin Airport
Date/Time
EST
Temp
°C
App
Temp
°C
Dew
Point
°C
Rel
Hum
%
Delta-T
°C
Wind Press
QNH
hPa
Press
MSL
hPa
Rain since
9am
mm
Dir  Spd
km/h
Gust
km/h
Spd
kts
Gust
kts
19/11:00pm 6.6 3.6 4.1 84 1.1 W 9 11 5 6 1027.5 1027.6 0.6
19/10:30pm 4.6 1.6 2.1 84 1.0 NW 7 9 4 5 1027.5 1027.6 0.6
19/10:00pm 4.2 1.2 1.7 84 1.0 NNW 7 9 4 5 1027.5 1027.6 0.6
19/09:30pm 4.6 2.9 1.8 82 1.1 CALM 0 0 0 0 1027.3 1027.4 0.6
19/09:00pm 4.4 1.8 0.9 78 1.3 NNW 4 6 2 3 1027.4 1027.5 0.6
19/08:30pm 6.5 4.5 2.2 74 1.8 N 2 9 1 5 1027.3 1027.4 0.6
19/08:00pm 6.2 3.2 1.1 70 2.0 E 6 6 3 3 1027.1 1027.2 0.6
19/07:30pm 6.7 3.5 1.0 67 2.3 SE 7 9 4 5 1027.3 1027.4 0.6
19/07:00pm 8.9 6.0 2.5 64 2.7 S 7 9 4 5 1027.2 1027.3 0.6
19/06:30pm 8.9 4.8 2.3 63 2.8 S 13 15 7 8 1027.3 1027.4 0.6
19/06:00pm 9.2 5.0 1.9 60 3.0 SSW 13 19 7 10 1027.0 1027.1 0.6
19/05:30pm 9.8 5.2 1.5 56 3.4 SSW 15 20 8 11 1026.9 1027.0 0.6
19/05:00pm 10.8 5.6 2.4 56 3.6 SW 19 26 10 14 1026.7 1026.8 0.6
19/04:30pm 11.0 5.9 3.3 59 3.4 SSW 19 26 10 14 1026.5 1026.6 0.6
19/04:00pm 11.2 7.9 4.4 63 3.0 SW 11 17 6 9 1026.4 1026.5 0.6
19/03:30pm 11.2 7.5 4.4 63 3.1 WSW 13 17 7 9 1026.4 1026.5 0.6
19/03:00pm 11.1 6.6 4.1 62 3.1 SW 17 24 9 13 1026.4 1026.5 0.6
19/02:30pm 11.2 7.4 3.7 60 3.3 SSW 13 17 7 9 1026.4 1026.5 0.6
19/02:00pm 10.8 7.0 4.0 63 3.0 SW 13 17 7 9 1026.4 1026.5 0.6
19/01:30pm 11.1 7.4 4.6 64 2.9 SSW 13 19 7 10 1026.5 1026.6 0.6
19/01:00pm 9.8 5.8 4.8 71 2.2 SE 15 20 8 11 1026.6 1026.7 0.6
19/12:30pm 9.4 3.9 3.8 68 2.4 SSW 22 33 12 18 1026.6 1026.7 0.6
19/12:00pm 10.0 7.2 5.2 72 2.2 SSE 9 11 5 6 1026.5 1026.6 0.6
19/11:30am 8.5 4.2 5.1 79 1.5 SE 17 24 9 13 1026.6 1026.7 0.6
19/11:00am 7.2 2.1 4.2 81 1.3 SSE 20 32 11 17 1027.0 1027.1 0.6
19/10:30am 9.5 5.9 5.1 74 2.0 S 13 20 7 11 1026.7 1026.8 0.0
19/10:00am 9.1 6.4 5.5 78 1.6 SSE 9 13 5 7 1026.3 1026.4 0.0
19/09:30am 8.2 5.0 5.3 82 1.3 SSE 11 15 6 8 1026.1 1026.2 0.0
19/09:00am 7.7 3.6 4.5 80 1.4 S 15 26 8 14 1025.9 1026.0 12.4
19/08:30am 7.9 3.5 5.0 82 1.3 SSW 17 20 9 11 1025.4 1025.5 12.4
19/08:00am 7.8 3.4 4.6 80 1.4 S 17 30 9 16 1025.0 1025.1 12.4
19/07:30am 7.1 3.2 3.5 78 1.5 SSW 13 22 7 12 1024.4 1024.5 12.4
19/07:00am 7.2 2.8 4.5 83 1.2 SSW 17 33 9 18 1023.9 1024.0 12.0
19/06:30am 6.2 2.4 3.9 85 1.0 SSE 13 20 7 11 1023.7 1023.8 12.0
19/06:00am 5.2 1.9 2.7 84 1.0 NE 9 15 5 8 1022.8 1022.9 11.4
19/05:30am 6.5 4.9 2.4 75 1.7 CALM 0 2 0 1 1022.4 1022.5 11.4
19/05:00am 7.9 4.5 4.1 77 1.6 SSW 11 24 6 13 1022.2 1022.3 11.4
19/04:30am 7.4 4.4 4.0 79 1.5 SSW 9 13 5 7 1021.7 1021.8 11.4
19/04:00am 7.3 4.5 5.1 86 1.0 SW 9 13 5 7 1021.3 1021.4 11.4
19/03:30am 7.6 4.1 5.6 87 0.9 WSW 13 22 7 12 1021.2 1021.3 11.4
19/03:00am 7.4 2.7 5.2 86 1.0 WSW 19 28 10 15 1021.1 1021.2 11.4
19/02:30am 7.7 3.7 5.0 83 1.2 W 15 20 8 11 1020.9 1021.0 11.0
19/02:00am 7.7 2.8 4.1 78 1.6 SSW 19 32 10 17 1020.8 1020.9 11.0
19/01:30am 7.8 4.3 5.3 84 1.1 W 13 22 7 12 1020.7 1020.8 10.4
19/01:00am 7.6 3.3 5.1 84 1.1 W 17 22 9 12 1020.5 1020.6 10.4
19/12:30am 8.1 3.9 5.6 84 1.1 W 17 26 9 14 1020.4 1020.5 10.4
19/12:00am 8.0 3.2 5.5 84 1.1 W 20 35 11 19 1020.2 1020.3 10.4
 
Date/Time
EST
Temp
°C
App
Temp
°C
Dew
Point
°C
Rel
Hum
%
Delta-T
°C
Wind Press
QNH
hPa
Press
MSL
hPa
Rain since
9am
mm
Dir  Spd
km/h
Gust
km/h
Spd
kts
Gust
kts
18/11:30pm 7.8 4.4 5.8 87 0.9 W 13 19 7 10 1020.0 1020.0 10.4
18/11:00pm 7.6 3.4 5.7 88 0.8 W 17 24 9 13 1019.9 1019.9 10.4
18/10:30pm 7.7 3.1 5.8 88 0.9 W 19 28 10 15 1019.7 1019.7 10.4
18/10:00pm 7.1 2.2 5.3 88 0.8 WSW 20 46 11 25 1019.3 1019.3 10.2
18/09:30pm 7.4 3.2 5.7 89 0.8 W 17 26 9 14 1019.0 1019.0 9.8
18/09:29pm 7.4 3.2 5.7 89 0.8 W 17 26 9 14 1019.0 1019.0 9.8
18/09:00pm 7.7 3.6 6.0 89 0.8 SW 17 24 9 13 1018.7 1018.7 8.6
18/08:47pm 7.8 4.4 5.9 88 0.9 WSW 13 17 7 9 1018.5 1018.5 5.8
18/08:35pm 7.7 3.9 5.7 87 0.9 WSW 15 22 8 12 1018.3 1018.3 5.0
18/08:30pm 7.6 3.8 5.6 87 0.9 WSW 15 20 8 11 1018.2 1018.2 5.0
18/08:14pm 7.6 1.9 4.9 83 1.2 SW 24 43 13 23 1018.6 1018.6 4.2
18/08:00pm 8.4 3.3 5.9 84 1.1 SW 22 32 12 17 1017.8 1017.8 3.0
18/07:55pm 8.3 3.6 5.9 85 1.1 WSW 20 32 11 17 1017.7 1017.7 3.0
18/07:43pm 8.0 3.2 5.5 84 1.1 WSW 20 39 11 21 1017.3 1017.3 3.0
18/07:30pm 8.4 5.0 5.9 84 1.1 W 13 24 7 13 1017.2 1017.2 2.2
18/07:00pm 7.9 4.0 5.4 84 1.1 WSW 15 20 8 11 1016.8 1016.8 2.2
18/06:30pm 9.5 4.6 5.1 74 2.0 WSW 20 32 11 17 1016.1 1016.1 1.6
18/06:00pm 9.2 4.7 6.1 81 1.4 SW 19 26 10 14 1015.7 1015.7 1.6
18/05:30pm 9.1 3.9 5.7 79 1.5 WSW 22 33 12 18 1015.1 1015.1 1.4
18/05:00pm 8.7 3.1 5.4 80 1.5 W 24 48 13 26 1014.6 1014.6 1.0
18/04:52pm 9.0 2.5 4.8 75 1.9 W 28 48 15 26 1014.5 1014.5 0.8
18/04:30pm 10.2 4.4 4.4 67 2.6 W 24 35 13 19 1014.1 1014.1 0.6
18/04:00pm 10.9 5.6 5.0 67 2.7 W 22 41 12 22 1013.3 1013.3 0.6
18/03:30pm 11.0 6.1 5.1 67 2.7 W 20 35 11 19 1012.6 1012.6 0.6
18/03:00pm 10.1 4.6 6.1 76 1.9 W 24 35 13 19 1012.9 1012.9 0.6
18/02:32pm 9.1 1.8 4.7 74 2.0 W 32 50 17 27 1012.0 1012.0 0.6
18/02:30pm 9.1 1.6 4.5 73 2.0 W 33 50 18 27 1011.9 1011.9 0.6
18/02:26pm 9.9 2.6 4.3 68 2.5 W 32 50 17 27 1011.9 1011.9 0.2
18/02:00pm 11.6 5.6 5.3 65 2.9 W 26 43 14 23 1011.4 1011.4 0.0
18/01:30pm 10.2 3.7 4.8 69 2.4 W 28 37 15 20 1011.2 1011.2 0.0
18/01:00pm 10.0 4.2 4.2 67 2.6 W 24 44 13 24 1011.1 1011.1 0.0
18/12:48pm 10.1 3.4 3.6 64 2.8 W 28 46 15 25 1011.0 1011.0 0.0
18/12:30pm 10.7 3.8 4.6 66 2.7 W 30 44 16 24 1010.9 1010.9 0.0
18/12:00pm 10.9 4.0 4.6 65 2.8 W 30 48 16 26 1010.7 1010.7 0.0
18/11:30am 10.9 3.6 4.6 65 2.8 W 32 54 17 29 1010.3 1010.3 0.0
18/11:08am 10.2 2.8 3.9 65 2.8 W 32 50 17 27 1010.1 1010.1 0.0
18/11:00am 10.7 3.3 4.2 64 2.9 W 32 48 17 26 1010.1 1010.1 0.0
18/10:48am 10.7 4.1 4.4 65 2.8 WNW 28 50 15 27 1009.6 1009.6 0.0
18/10:30am 9.8 2.8 4.0 67 2.6 W 30 44 16 24 1009.8 1009.8 0.0
18/10:14am 9.6 2.2 4.0 68 2.5 WNW 32 50 17 27 1009.7 1009.7 0.0
18/10:00am 9.8 3.2 4.4 69 2.4 WNW 28 41 15 22 1009.6 1009.6 0.0
18/09:51am 9.8 2.8 4.2 68 2.5 WNW 30 48 16 26 1009.4 1009.4 0.0
18/09:30am 9.8 2.8 4.0 67 2.6 WNW 30 44 16 24 1008.9 1008.9 0.0
18/09:00am 9.7 2.3 4.1 68 2.5 WNW 32 50 17 27 1008.6 1008.6 2.0
18/08:53am 9.7 3.1 4.1 68 2.5 WNW 28 50 15 27 1008.5 1008.5 2.0
18/08:30am 9.1 2.1 3.9 70 2.3 WNW 30 46 16 25 1008.2 1008.2 2.0
18/08:00am 8.8 2.5 4.0 72 2.1 WNW 26 43 14 23 1007.8 1007.8 2.0
18/07:30am 8.5 3.4 3.9 73 2.0 WNW 20 33 11 18 1007.3 1007.3 2.0
18/07:00am 8.6 1.9 3.6 71 2.2 WNW 28 48 15 26 1006.9 1006.9 2.0
18/06:30am 8.6 1.8 3.2 69 2.3 WNW 28 48 15 26 1006.2 1006.2 2.0
18/06:05am 8.9 2.2 3.5 69 2.3 WNW 28 50 15 27 1006.0 1006.0 2.0
18/06:00am 8.9 2.6 3.5 69 2.3 WNW 26 43 14 23 1005.9 1005.9 2.0
18/05:30am 9.0 3.0 3.4 68 2.4 WNW 24 37 13 20 1005.6 1005.6 2.0
18/05:00am 9.1 1.9 3.1 66 2.6 WNW 30 48 16 26 1005.3 1005.3 2.0
18/04:55am 9.2 2.4 3.0 65 2.7 WNW 28 48 15 26 1005.2 1005.2 2.0
18/04:30am 8.8 2.8 3.2 68 2.4 NW 24 39 13 21 1004.4 1004.4 2.0
18/04:00am 8.8 3.1 3.0 67 2.5 NW 22 39 12 21 1004.6 1004.6 2.0
18/03:30am 9.1 3.4 3.1 66 2.6 NW 22 35 12 19 1004.5 1004.5 2.0
18/03:00am 8.9 3.6 3.1 67 2.5 NW 20 33 11 18 1004.2 1004.2 2.0
18/02:30am 8.9 2.8 2.9 66 2.6 NW 24 37 13 20 1004.2 1004.2 2.0
18/02:00am 9.0 4.3 3.4 68 2.4 NW 17 22 9 12 1004.4 1004.4 2.0
18/01:30am 9.0 4.0 3.4 68 2.4 NW 19 28 10 15 1004.4 1004.4 2.0
18/01:00am 8.9 3.7 3.5 69 2.3 NNW 20 28 11 15 1004.1 1004.1 2.0
18/12:30am 8.9 2.9 3.5 69 2.3 NNW 24 32 13 17 1004.2 1004.2 2.0
18/12:00am 8.8 3.6 3.4 69 2.3 NW 20 32 11 17 1004.4 1004.4 2.0
 
Date/Time
EST
Temp
°C
App
Temp
°C
Dew
Point
°C
Rel
Hum
%
Delta-T
°C
Wind Press
QNH
hPa
Press
MSL
hPa
Rain since
9am
mm
Dir  Spd
km/h
Gust
km/h
Spd
kts
Gust
kts
17/11:30pm 8.9 4.3 3.7 70 2.3 NW 17 32 9 17 1004.2 1004.2 2.0
17/11:00pm 8.9 3.7 3.5 69 2.3 NW 20 30 11 16 1004.0 1004.0 2.0
17/10:30pm 9.1 4.9 3.9 70 2.3 NW 15 24 8 13 1004.1 1004.1 2.0
17/10:00pm 9.1 4.0 3.9 70 2.3 NW 20 35 11 19 1003.6 1003.6 2.0
17/09:30pm 9.0 3.1 3.8 70 2.3 NW 24 35 13 19 1003.8 1003.8 2.0
17/09:00pm 8.8 4.4 4.8 76 1.8 NNW 17 26 9 14 1003.8 1003.8 2.0
17/08:30pm 8.4 3.4 4.6 77 1.7 NNW 20 32 11 17 1003.5 1003.5 2.0
17/08:00pm 8.1 3.1 4.7 79 1.5 NNW 20 28 11 15 1003.3 1003.3 2.0
17/07:30pm 8.7 3.9 5.4 80 1.5 NW 20 28 11 15 1003.4 1003.4 1.8
17/07:21pm 8.6 3.8 5.7 82 1.3 WNW 20 30 11 16 1003.6 1003.6 1.8
17/07:07pm 8.7 2.3 5.1 78 1.6 WNW 28 48 15 26 1003.9 1003.9 1.8
17/07:06pm 8.8 2.7 5.0 77 1.7 WNW 26 48 14 26 1003.9 1003.9 1.6
17/07:00pm 10.6 6.4 5.8 72 2.2 NW 17 39 9 21 1003.3 1003.3 1.2
17/06:30pm 10.4 5.9 6.2 75 2.0 NW 19 24 10 13 1002.8 1002.8 1.0
17/06:00pm 9.8 5.8 6.7 81 1.5 NW 17 22 9 12 1002.2 1002.2 1.0
17/05:30pm 9.6 5.1 6.3 80 1.5 NW 19 28 10 15 1001.8 1001.8 1.0
17/05:00pm 9.5 4.8 6.2 80 1.5 NW 20 32 11 17 1001.7 1001.7 1.0
17/04:54pm 9.5 4.4 6.0 79 1.6 WNW 22 32 12 17 1001.7 1001.7 1.0
17/04:36pm 9.2 1.5 5.2 76 1.8 W 35 57 19 31 1001.9 1001.9 0.8
17/04:30pm 9.8 2.2 4.0 67 2.6 WNW 33 57 18 31 1001.9 1001.9 0.2
17/04:21pm 12.6 6.1 4.6 58 3.7 WNW 28 50 15 27 1000.9 1000.9 0.2
17/04:00pm 14.0 6.9 3.8 50 4.7 WNW 30 46 16 25 1000.4 1000.4 0.2
17/03:30pm 14.1 7.9 4.1 51 4.6 NW 26 35 14 19 1000.3 1000.3 0.2
17/03:00pm 14.1 7.0 3.8 50 4.7 NW 30 44 16 24 1000.3 1000.3 0.2
17/02:30pm 14.5 7.1 4.2 50 4.7 NW 32 52 17 28 1000.3 1000.3 0.2
17/02:21pm 14.5 8.0 4.5 51 4.6 WNW 28 54 15 29 1000.4 1000.4 0.2
17/02:00pm 14.7 8.1 4.1 49 4.9 WNW 28 43 15 23 1000.3 1000.3 0.2
17/01:32pm 14.5 7.3 4.8 52 4.5 NW 32 50 17 27 1000.5 1000.5 0.2
17/01:30pm 14.3 6.9 4.9 53 4.4 NW 33 50 18 27 1000.4 1000.4 0.2
17/01:00pm 15.2 6.5 4.3 48 5.1 WNW 39 57 21 31 1000.4 1000.4 0.2
17/12:39pm 14.9 7.9 4.3 49 4.9 WNW 30 52 16 28 1000.2 1000.2 0.2
17/12:30pm 14.3 7.0 4.6 52 4.5 NW 32 48 17 26 1000.3 1000.3 0.2
17/12:03pm 14.0 7.2 5.1 55 4.2 NW 30 52 16 28 1000.6 1000.6 0.2
17/12:00pm 14.3 8.0 5.9 57 4.0 NW 28 44 15 24 1000.8 1000.8 0.2
17/11:30am 13.3 8.7 6.6 64 3.2 NW 20 32 11 17 1001.1 1001.1 0.2
17/11:00am 11.5 6.4 6.0 69 2.6 NNW 22 28 12 15 1001.2 1001.2 0.2
17/10:30am 10.1 5.4 5.9 75 1.9 NNW 20 26 11 14 1001.7 1001.7 0.2
17/10:00am 9.7 4.5 5.7 76 1.8 NNW 22 30 12 16 1001.7 1001.7 0.2
17/09:30am 9.4 3.5 5.8 78 1.6 NNW 26 37 14 20 1001.4 1001.4 0.2
17/09:07am 9.1 2.3 5.1 76 1.8 NNW 30 48 16 26 1001.7 1001.7 0.0
17/09:00am 9.2 2.1 5.4 77 1.7 NNW 32 44 17 24 1001.5 1001.5 1.0
17/08:35am 10.2 3.8 5.2 71 2.3 NW 28 46 15 25 1001.7 1001.7 0.6
17/08:30am 10.5 3.1 5.1 69 2.5 NW 33 48 18 26 1001.7 1001.7 0.6
17/08:20am 11.4 5.1 5.9 69 2.6 NNW 28 46 15 25 1001.6 1001.6 0.4
17/08:00am 11.3 6.9 6.6 73 2.2 NNW 19 24 10 13 1001.5 1001.5 0.4
17/07:30am 11.7 7.0 6.2 69 2.6 NNW 20 28 11 15 1001.4 1001.4 0.4
17/07:00am 11.9 7.1 5.5 65 3.0 NNW 20 30 11 16 1001.2 1001.2 0.4
17/06:30am 11.8 7.0 5.7 66 2.8 NNW 20 32 11 17 1000.9 1000.9 0.4
17/06:00am 11.7 7.6 6.2 69 2.6 NNW 17 26 9 14 1001.0 1001.0 0.4
17/05:30am 11.0 7.2 5.7 70 2.4 NW 15 20 8 11 1001.1 1001.1 0.4
17/05:00am 11.8 7.6 5.7 66 2.9 NW 17 24 9 13 1001.0 1001.0 0.4
17/04:30am 12.0 6.8 5.6 65 3.0 NW 22 33 12 18 1000.6 1000.6 0.4
17/04:00am 12.4 6.6 6.2 66 2.9 NW 26 43 14 23 1000.3 1000.3 0.4
17/03:30am 12.4 7.1 6.7 68 2.7 NW 24 35 13 19 1000.6 1000.6 0.4
17/03:00am 12.3 7.1 7.2 71 2.5 NW 24 32 13 17 1000.9 1000.9 0.4
17/02:30am 11.9 7.6 7.8 76 2.0 NNW 20 33 11 18 1001.1 1001.1 0.4
17/02:00am 11.8 6.3 7.7 76 2.0 NW 26 35 14 19 1001.1 1001.1 0.4
17/01:30am 11.9 5.4 8.0 77 1.9 NW 32 52 17 28 1000.9 1000.9 0.4
17/01:23am 11.8 5.7 8.1 78 1.8 NW 30 52 16 28 1001.3 1001.3 0.4
17/01:00am 12.0 7.1 7.1 72 2.4 NW 22 33 12 18 1001.7 1001.7 0.2
17/12:30am 12.6 7.3 6.6 67 2.9 NW 24 35 13 19 1001.5 1001.5 0.0
17/12:00am 13.0 7.2 6.4 64 3.2 NNW 26 41 14 22 1001.3 1001.3 0.0
 
Date/Time
EST
Temp
°C
App
Temp
°C
Dew
Point
°C
Rel
Hum
%
Delta-T
°C
Wind Press
QNH
hPa
Press
MSL
hPa
Rain since
9am
mm
Dir  Spd
km/h
Gust
km/h
Spd
kts
Gust
kts
16/11:30pm 12.9 7.4 6.0 63 3.3 NNW 24 35 13 19 1001.3 1001.3 0.0

Latest Capital City Observations: Canberra | Sydney | Melbourne | Brisbane | Adelaide | Perth | Hobart | Darwin

Other Formats:

Comma delimited format used in spreadsheet applications
http://www.bom.gov.au/fwo/IDV60901/IDV60901.94870.axf

JavaScript Object Notation format (JSON) in row-major order
http://www.bom.gov.au/fwo/IDV60901/IDV60901.94870.json